Time;durP1;ratioP1;P1;durP2;ratioP2;P2;SDS_P1;SDS_P2;PMS_P1;PMS_P2;Temp;Humidity;BMP_temperature;BMP_pressure;BME280_temperature;BME280_humidity;BME280_pressure;Samples;Min_cycle;Max_cycle;Signal;HPM_P1;HPM_P2
2021/12/29 00:00:02;;;;;;;26.20;16.97;;;;;;;4.93;72.33;101177.69;2080593;28;20183;-68
2021/12/29 00:01:03;;;;;;;26.15;16.23;;;;;;;4.48;71.46;101100.47;2081068;28;20182;-68
2021/12/29 00:02:04;;;;;;;27.98;17.75;;;;;;;4.85;71.91;101189.81;2081895;28;20647;-68
2021/12/29 00:03:04;;;;;;;30.17;18.33;;;;;;;4.93;71.70;101168.69;2081799;28;20178;-68
2021/12/29 00:04:05;;;;;;;28.67;18.10;;;;;;;4.00;71.85;101017.38;2081715;28;20235;-68
2021/12/29 00:05:07;;;;;;;29.43;18.23;;;;;;;4.98;72.07;101158.13;2081783;28;20179;-68
2021/12/29 00:06:07;;;;;;;28.02;18.60;;;;;;;4.94;71.69;101149.09;2081869;28;20238;-68
2021/12/29 00:07:10;;;;;;;27.30;17.77;;;;;;;3.93;71.73;100986.34;2081848;28;20264;-69
2021/12/29 00:08:11;;;;;;;27.90;17.83;;;;;;;4.14;72.10;101028.47;2081859;28;20180;-69
2021/12/29 00:09:11;;;;;;;28.10;18.20;;;;;;;5.00;72.46;101160.50;2081757;28;20173;-68
2021/12/29 00:10:14;;;;;;;24.97;16.90;;;;;;;5.01;71.49;101170.31;2080905;28;20197;-68
2021/12/29 00:11:15;;;;;;;28.65;18.23;;;;;;;5.03;72.53;101160.50;2080345;28;20191;-68
2021/12/29 00:12:23;;;;;;;28.47;17.37;;;;;;;5.01;71.82;101157.38;2081046;28;20265;-68
2021/12/29 00:13:26;;;;;;;27.83;17.50;;;;;;;4.98;71.37;101160.09;2081816;28;20596;-69
2021/12/29 00:14:26;;;;;;;29.05;18.48;;;;;;;3.78;71.71;100990.13;2081628;28;20185;-68
2021/12/29 00:15:28;;;;;;;27.77;18.30;;;;;;;4.93;71.40;101155.72;2081798;28;20688;-68
2021/12/29 00:16:29;;;;;;;27.17;18.67;;;;;;;4.95;72.27;101161.66;2081564;28;20182;-68
2021/12/29 00:17:29;;;;;;;30.13;17.67;;;;;;;4.95;71.82;101152.59;2081832;28;20184;-68
2021/12/29 00:18:32;;;;;;;30.27;18.50;;;;;;;4.98;71.87;101177.34;2081580;28;20182;-68
2021/12/29 00:19:32;;;;;;;29.98;18.75;;;;;;;3.94;71.96;101007.91;2081880;28;20185;-68
2021/12/29 00:20:33;;;;;;;30.90;18.43;;;;;;;4.91;72.47;101157.28;2080044;28;20184;-68
2021/12/29 00:21:36;;;;;;;28.63;18.77;;;;;;;4.89;72.38;101160.44;2081915;28;20203;-69
2021/12/29 00:22:36;;;;;;;31.00;18.65;;;;;;;4.37;71.74;101066.69;2081266;28;20286;-68
2021/12/29 00:23:37;;;;;;;31.07;19.23;;;;;;;4.94;71.85;101151.84;2081615;28;20200;-68
2021/12/29 00:24:37;;;;;;;30.63;18.73;;;;;;;4.87;71.46;101142.75;2080759;28;20730;-68
2021/12/29 00:25:38;;;;;;;30.63;19.40;;;;;;;4.01;72.23;101021.69;2081330;28;20220;-68
2021/12/29 00:26:38;;;;;;;28.73;18.60;;;;;;;4.88;72.19;101147.06;2081426;28;20183;-68
2021/12/29 00:27:39;;;;;;;30.13;19.43;;;;;;;3.81;71.98;100981.97;2081483;28;20191;-68
2021/12/29 00:28:39;;;;;;;31.40;18.93;;;;;;;4.89;71.69;101154.13;2081437;28;20266;-69
2021/12/29 00:29:40;;;;;;;27.97;17.97;;;;;;;4.93;72.02;101149.47;2080461;28;20580;-68
2021/12/29 00:30:41;;;;;;;30.83;19.37;;;;;;;4.97;72.18;101150.28;2079932;28;20190;-68
2021/12/29 00:31:42;;;;;;;35.55;19.75;;;;;;;4.96;71.89;101154.97;2081730;28;20574;-68
2021/12/29 00:32:42;;;;;;;29.90;19.77;;;;;;;4.84;72.07;101136.06;2081406;28;20171;-68
2021/12/29 00:33:43;;;;;;;30.33;18.83;;;;;;;4.93;71.94;101150.25;2081877;28;20190;-68
2021/12/29 00:34:43;;;;;;;26.77;17.17;;;;;;;4.72;71.96;101119.88;2081056;28;20186;-68
2021/12/29 00:35:46;;;;;;;26.37;17.00;;;;;;;4.94;72.35;101145.53;2081824;28;20269;-69
2021/12/29 00:36:46;;;;;;;29.33;18.50;;;;;;;4.13;71.89;101020.63;2081391;28;20189;-68
2021/12/29 00:37:47;;;;;;;27.53;18.33;;;;;;;4.17;71.61;101024.97;2081782;28;20206;-68
2021/12/29 00:38:47;;;;;;;29.27;18.03;;;;;;;4.81;71.35;101122.28;2081357;28;20568;-69
2021/12/29 00:39:48;;;;;;;27.27;17.33;;;;;;;4.72;71.99;101122.63;2081451;28;20182;-69
2021/12/29 00:40:48;;;;;;;25.57;17.13;;;;;;;4.90;71.86;101134.53;2080195;28;20186;-68
2021/12/29 00:41:49;;;;;;;27.93;17.03;;;;;;;4.23;71.84;101023.47;2081105;28;20675;-68
2021/12/29 00:42:49;;;;;;;28.70;17.30;;;;;;;5.00;71.79;101146.75;2080662;28;20260;-68
2021/12/29 00:43:50;;;;;;;25.17;16.40;;;;;;;4.99;72.27;101154.22;2080958;28;20568;-68
2021/12/29 00:44:50;;;;;;;25.47;15.67;;;;;;;4.92;71.92;101142.41;2080745;28;20191;-68
2021/12/29 00:45:51;;;;;;;27.27;17.23;;;;;;;4.99;72.05;101154.22;2081933;28;20326;-68
2021/12/29 00:46:54;;;;;;;24.97;16.53;;;;;;;4.96;71.76;101148.69;2081145;28;20594;-69
2021/12/29 00:47:54;;;;;;;23.98;16.08;;;;;;;4.96;71.66;101149.50;2081655;28;20245;-69
2021/12/29 00:48:56;;;;;;;24.23;16.67;;;;;;;4.99;71.98;101150.69;2081349;28;20235;-68
2021/12/29 00:49:59;;;;;;;24.60;16.50;;;;;;;5.02;71.73;101149.94;2080812;28;20182;-69
2021/12/29 00:50:59;;;;;;;22.98;15.45;;;;;;;5.03;71.28;101143.25;2080568;28;20183;-68
2021/12/29 00:52:04;;;;;;;24.13;15.87;;;;;;;4.58;71.81;101077.81;2081570;28;20179;-68
2021/12/29 00:53:06;;;;;;;24.00;15.68;;;;;;;4.99;71.66;101150.69;2081670;28;20155;-68
2021/12/29 00:54:07;;;;;;;22.52;15.95;;;;;;;4.96;71.96;101149.50;2081681;28;20227;-69
2021/12/29 00:55:08;;;;;;;24.00;16.90;;;;;;;4.92;72.08;101145.16;2081294;28;20199;-68
2021/12/29 00:56:09;;;;;;;25.52;16.40;;;;;;;4.90;71.69;101148.28;2081557;28;20194;-68
2021/12/29 00:57:10;;;;;;;24.17;15.67;;;;;;;4.90;72.20;101144.72;2081403;28;20383;-68
2021/12/29 00:58:11;;;;;;;25.85;17.40;;;;;;;4.90;72.73;101136.50;2081228;28;20192;-69
2021/12/29 00:59:11;;;;;;;24.03;16.27;;;;;;;4.25;71.92;101039.53;2081261;28;20213;-68
2021/12/29 01:00:16;;;;;;;26.20;16.57;;;;;;;4.97;71.66;101147.53;2080585;28;20179;-68
2021/12/29 01:01:17;;;;;;;26.15;16.38;;;;;;;4.93;71.70;101163.97;2081029;28;20181;-68
2021/12/29 01:02:17;;;;;;;26.77;16.53;;;;;;;4.94;72.10;101142.81;2081462;28;20670;-68
2021/12/29 01:03:18;;;;;;;27.23;17.13;;;;;;;4.94;71.57;101143.59;2081243;28;20260;-68
2021/12/29 01:04:19;;;;;;;27.47;17.90;;;;;;;4.86;71.60;101133.72;2081435;28;20279;-68
2021/12/29 01:05:21;;;;;;;26.75;17.25;;;;;;;4.92;71.75;101145.16;2081449;28;20180;-68
2021/12/29 01:06:21;;;;;;;28.08;17.77;;;;;;;4.92;71.59;101148.66;2081441;28;20184;-69
2021/12/29 01:07:22;;;;;;;24.87;16.87;;;;;;;4.89;71.47;101146.69;2081315;28;20181;-68
2021/12/29 01:08:22;;;;;;;31.53;18.40;;;;;;;4.80;71.52;101132.50;2081424;28;20177;-68
2021/12/29 01:09:23;;;;;;;27.87;17.23;;;;;;;4.87;71.44;101140.78;2081474;28;20723;-69
2021/12/29 01:10:24;;;;;;;26.67;17.17;;;;;;;4.88;71.87;101145.09;2079870;28;20197;-68
2021/12/29 01:11:24;;;;;;;29.07;17.87;;;;;;;4.89;72.22;101138.47;2081166;28;20178;-68
2021/12/29 01:12:25;;;;;;;25.07;16.93;;;;;;;4.22;72.71;101029.31;2081281;28;20187;-68
2021/12/29 01:13:31;;;;;;;27.77;17.77;;;;;;;4.88;72.49;101136.09;2080665;28;20264;-68
2021/12/29 01:14:32;;;;;;;26.45;17.50;;;;;;;4.52;71.63;101091.09;2080474;28;20167;-68
2021/12/29 01:15:47;;;;;;;25.97;17.87;;;;;;;4.84;72.05;101135.28;2081505;28;20256;-68
2021/12/29 01:16:48;;;;;;;29.10;18.38;;;;;;;4.87;72.67;101138.03;2072933;28;20179;-68
2021/12/29 01:17:48;;;;;;;28.07;17.13;;;;;;;4.76;72.33;101134.44;2073381;28;20172;-69
2021/12/29 01:18:49;;;;;;;27.70;17.57;;;;;;;4.86;72.33;101147.44;2072814;28;20174;-68
2021/12/29 01:19:54;;;;;;;26.07;16.90;;;;;;;4.85;71.97;101148.63;2072911;28;20182;-68
2021/12/29 01:20:55;;;;;;;26.20;16.85;;;;;;;4.86;71.96;101141.97;2072369;28;20204;-68
2021/12/29 01:21:58;;;;;;;30.33;18.37;;;;;;;4.83;72.32;101131.72;2073252;28;20213;-68
2021/12/29 01:22:59;;;;;;;29.00;18.58;;;;;;;3.67;71.89;100948.13;2075745;28;20522;-68
2021/12/29 01:24:02;;;;;;;27.08;16.77;;;;;;;4.86;72.60;101136.47;2081496;28;20640;-68
2021/12/29 01:25:03;;;;;;;25.88;17.00;;;;;;;4.02;72.23;100992.31;2081308;28;20467;-68
2021/12/29 01:26:04;;;;;;;26.90;17.30;;;;;;;4.85;72.27;101123.91;2081281;28;20178;-69
2021/12/29 01:27:05;;;;;;;26.27;17.03;;;;;;;4.88;72.30;101125.88;2081055;28;20169;-68
2021/12/29 01:28:05;;;;;;;29.20;17.58;;;;;;;4.88;72.52;101123.13;2081238;28;20200;-69
2021/12/29 01:29:06;;;;;;;25.03;16.23;;;;;;;4.87;72.12;101113.31;2081223;28;20177;-68
2021/12/29 01:30:10;;;;;;;26.23;18.50;;;;;;;4.92;71.88;101114.94;2080381;28;20181;-68
2021/12/29 01:31:10;;;;;;;27.25;18.20;;;;;;;3.80;71.88;100943.97;2080356;28;20677;-68
2021/12/29 01:32:11;;;;;;;24.97;17.63;;;;;;;4.91;71.92;101121.56;2081243;28;20637;-68
2021/12/29 01:33:12;;;;;;;26.97;17.17;;;;;;;4.93;71.46;101116.50;2081163;28;20176;-69
2021/12/29 01:34:13;;;;;;;27.97;18.33;;;;;;;4.98;71.66;101116.91;2081132;28;20182;-68
2021/12/29 01:35:14;;;;;;;25.83;17.02;;;;;;;4.93;72.01;101117.28;2080901;28;20188;-68
2021/12/29 01:36:14;;;;;;;27.17;18.00;;;;;;;4.94;72.25;101113.38;2081164;28;20184;-69
2021/12/29 01:37:17;;;;;;;28.73;18.27;;;;;;;4.93;72.29;101114.53;2081140;28;20615;-68
2021/12/29 01:38:17;;;;;;;29.85;17.70;;;;;;;4.93;72.51;101117.28;2081196;28;20322;-68
2021/12/29 01:39:19;;;;;;;26.77;18.20;;;;;;;4.88;71.98;101122.34;2081166;28;20181;-68
2021/12/29 01:40:21;;;;;;;30.42;18.38;;;;;;;3.47;71.77;100903.72;2079674;28;20180;-68
2021/12/29 01:41:21;;;;;;;29.63;17.98;;;;;;;4.81;71.78;101120.34;2080732;28;20264;-68
2021/12/29 01:42:22;;;;;;;27.20;17.50;;;;;;;4.81;72.49;101114.84;2081085;28;20196;-68
2021/12/29 01:43:23;;;;;;;26.80;17.37;;;;;;;4.80;72.21;101112.47;2081023;28;20243;-68
2021/12/29 01:44:25;;;;;;;26.97;17.97;;;;;;;4.64;72.39;101118.25;2081075;28;20189;-69
2021/12/29 01:45:26;;;;;;;27.25;17.67;;;;;;;4.65;72.50;101108.06;2081185;28;20574;-68
2021/12/29 01:46:26;;;;;;;31.60;18.33;;;;;;;4.63;72.47;101113.16;2080274;28;20184;-69
2021/12/29 01:47:30;;;;;;;27.07;17.33;;;;;;;4.63;73.00;101113.16;2080420;28;20204;-69
2021/12/29 01:48:30;;;;;;;28.17;17.30;;;;;;;4.57;72.94;101112.69;2080886;28;20180;-68
2021/12/29 01:49:31;;;;;;;29.23;17.90;;;;;;;3.77;72.32;100989.38;2081299;28;20177;-68
2021/12/29 01:50:32;;;;;;;30.30;17.60;;;;;;;4.57;72.52;101106.44;2079425;28;20175;-68
2021/12/29 01:51:34;;;;;;;28.20;17.60;;;;;;;4.54;72.93;101104.44;2081209;28;20547;-68
2021/12/29 01:52:39;;;;;;;27.73;18.20;;;;;;;4.46;72.60;101094.59;2080820;28;20680;-68
2021/12/29 01:53:47;;;;;;;31.75;18.42;;;;;;;4.46;73.13;101102.81;2081219;28;20642;-68
2021/12/29 01:54:48;;;;;;;29.20;18.45;;;;;;;4.46;73.19;101097.34;2080623;28;20634;-68
2021/12/29 01:55:49;;;;;;;28.93;18.87;;;;;;;4.47;73.34;101099.69;2081192;28;20601;-68
2021/12/29 01:56:53;;;;;;;29.50;18.38;;;;;;;4.18;73.14;101047.69;2080686;28;20651;-68
2021/12/29 01:57:54;;;;;;;26.38;17.20;;;;;;;4.56;73.05;101110.34;2081106;28;20645;-68
2021/12/29 01:58:55;;;;;;;27.63;17.80;;;;;;;3.16;73.11;100867.81;2080598;28;20680;-68
2021/12/29 01:59:55;;;;;;;28.23;17.43;;;;;;;4.55;72.59;101097.78;2080480;28;20177;-69
2021/12/29 02:00:58;;;;;;;28.37;17.63;;;;;;;4.51;73.51;101097.75;2079937;28;20665;-68
2021/12/29 02:01:58;;;;;;;26.52;17.45;;;;;;;4.51;73.01;101097.75;2081057;28;20256;-68
2021/12/29 02:02:59;;;;;;;26.43;17.03;;;;;;;4.51;73.15;101091.50;2080664;28;20215;-68
2021/12/29 02:04:00;;;;;;;27.80;18.00;;;;;;;4.54;73.47;101097.00;2081020;28;20233;-68
2021/12/29 02:05:00;;;;;;;30.80;18.87;;;;;;;4.57;73.18;101098.19;2080681;28;20235;-68
2021/12/29 02:06:01;;;;;;;29.10;18.43;;;;;;;3.98;73.31;101003.25;2081052;28;20176;-68
2021/12/29 02:07:02;;;;;;;29.70;18.37;;;;;;;4.58;73.62;101097.81;2080854;28;20608;-68
2021/12/29 02:08:04;;;;;;;30.03;18.07;;;;;;;3.46;73.22;100917.81;2081093;28;20645;-68
2021/12/29 02:09:06;;;;;;;29.55;19.13;;;;;;;4.60;73.14;101098.22;2080757;28;20191;-69
2021/12/29 02:10:08;;;;;;;25.60;17.52;;;;;;;4.62;73.25;101095.09;2080057;28;20185;-69
2021/12/29 02:11:09;;;;;;;28.08;18.20;;;;;;;4.32;73.15;101047.81;2079962;28;20175;-69
2021/12/29 02:12:10;;;;;;;26.20;16.90;;;;;;;4.63;72.77;101088.44;2080195;28;20192;-69
2021/12/29 02:13:11;;;;;;;28.30;18.30;;;;;;;4.26;73.54;101033.66;2080340;28;20684;-68
2021/12/29 02:14:13;;;;;;;25.60;16.25;;;;;;;4.62;73.67;101095.09;2080954;28;20715;-69
2021/12/29 02:15:13;;;;;;;29.90;18.25;;;;;;;4.67;73.44;101095.53;2080725;28;20182;-69
2021/12/29 02:16:14;;;;;;;27.50;18.07;;;;;;;4.75;72.59;101091.66;2080695;28;20189;-68
2021/12/29 02:17:14;;;;;;;28.17;17.83;;;;;;;4.59;73.23;101051.94;2080803;28;20176;-68
2021/12/29 02:18:19;;;;;;;26.03;17.53;;;;;;;4.80;72.92;101096.81;2080843;28;20587;-68
2021/12/29 02:19:22;;;;;;;24.98;15.98;;;;;;;4.79;72.77;101091.69;2080753;28;20188;-68
2021/12/29 02:20:22;;;;;;;28.13;17.38;;;;;;;4.82;72.43;101104.66;2079201;28;20207;-68
2021/12/29 02:21:24;;;;;;;26.20;16.87;;;;;;;4.85;72.65;101103.88;2080840;28;20267;-68
2021/12/29 02:23:45;;;;;;;22.73;16.08;;;;;;;4.80;72.79;101098.75;2080834;28;20192;-68
2021/12/29 02:24:53;;;;;;;24.38;15.48;;;;;;;4.76;72.76;101092.44;2080780;28;20172;-68
2021/12/29 02:25:56;;;;;;;23.70;15.73;;;;;;;4.75;72.94;101096.38;2081043;28;20169;-68
2021/12/29 02:26:59;;;;;;;25.20;15.98;;;;;;;4.73;73.04;101094.00;2080603;28;20173;-68
2021/12/29 02:28:01;;;;;;;21.15;14.85;;;;;;;4.76;72.50;101087.75;2080971;28;20180;-68
2021/12/29 02:29:03;;;;;;;22.42;15.43;;;;;;;4.77;72.63;101094.81;2080627;28;20569;-68
2021/12/29 02:30:04;;;;;;;23.83;15.30;;;;;;;4.75;72.41;101090.88;2079914;28;20184;-68
2021/12/29 02:31:05;;;;;;;21.55;14.98;;;;;;;4.74;72.51;101092.03;2080088;28;20186;-68
2021/12/29 02:32:05;;;;;;;22.40;15.10;;;;;;;4.75;72.64;101091.66;2080716;28;20187;-68
2021/12/29 02:33:07;;;;;;;20.47;14.07;;;;;;;4.78;72.31;101099.13;2080604;28;20651;-68
2021/12/29 02:34:10;;;;;;;21.65;14.77;;;;;;;4.80;72.03;101096.00;2080861;28;20175;-68
2021/12/29 02:35:13;;;;;;;24.13;15.65;;;;;;;4.77;72.30;101094.03;2080438;28;20187;-68
2021/12/29 02:36:16;;;;;;;22.75;15.32;;;;;;;4.62;72.48;101093.13;2080705;28;20658;-68
2021/12/29 02:37:20;;;;;;;22.65;15.18;;;;;;;4.55;72.72;101093.09;2080674;28;20176;-69
2021/12/29 02:38:27;;;;;;;23.75;15.38;;;;;;;4.55;73.12;101087.59;2080718;28;20193;-69
2021/12/29 02:39:31;;;;;;;22.80;14.88;;;;;;;4.56;73.03;101082.91;2080955;28;20165;-68
2021/12/29 02:40:32;;;;;;;22.23;15.05;;;;;;;4.35;72.59;101055.28;2079126;28;20176;-68
2021/12/29 02:41:32;;;;;;;23.73;15.33;;;;;;;4.53;72.96;101087.19;2080886;28;20205;-68
2021/12/29 02:42:39;;;;;;;22.90;15.20;;;;;;;3.50;72.85;100921.38;2080487;28;20216;-68
2021/12/29 02:43:41;;;;;;;24.83;15.93;;;;;;;3.09;72.98;100859.53;2081016;28;20594;-68
2021/12/29 02:44:42;;;;;;;24.63;15.88;;;;;;;4.46;73.59;101083.63;2080477;28;20193;-68
2021/12/29 02:45:48;;;;;;;21.48;14.23;;;;;;;3.73;73.15;100952.09;2081044;28;20660;-68
2021/12/29 02:46:49;;;;;;;23.48;15.63;;;;;;;3.62;72.90;100945.75;2080367;28;20603;-68
2021/12/29 02:47:50;;;;;;;24.50;15.20;;;;;;;4.45;73.53;101071.84;2080941;28;20191;-68
2021/12/29 02:48:59;;;;;;;25.43;15.57;;;;;;;4.49;73.50;101072.66;2080514;28;20252;-68
2021/12/29 02:49:59;;;;;;;27.73;16.83;;;;;;;4.49;73.91;101071.84;2080027;28;20202;-68
2021/12/29 02:51:01;;;;;;;23.33;15.80;;;;;;;4.50;73.35;101081.66;2079905;28;20697;-68
2021/12/29 02:52:02;;;;;;;23.67;15.25;;;;;;;4.47;73.77;101069.50;2080727;28;20175;-68
2021/12/29 02:53:02;;;;;;;23.67;15.30;;;;;;;4.50;73.31;101065.19;2080786;28;20179;-69
2021/12/29 02:54:03;;;;;;;22.23;15.23;;;;;;;4.51;73.34;101064.06;2082425;28;20178;-68
2021/12/29 02:55:04;;;;;;;24.60;15.17;;;;;;;4.56;73.45;101071.94;2082093;28;20183;-68
2021/12/29 02:56:05;;;;;;;22.10;14.30;;;;;;;4.60;73.18;101072.72;2082517;28;20185;-68
2021/12/29 02:57:06;;;;;;;20.37;14.27;;;;;;;4.58;73.63;101066.84;2082379;28;20205;-68
2021/12/29 02:58:07;;;;;;;23.10;15.30;;;;;;;4.61;73.90;101074.31;2082442;28;20282;-69
2021/12/29 02:59:07;;;;;;;24.13;15.20;;;;;;;4.59;73.63;101068.41;2081426;28;20195;-68
2021/12/29 03:00:12;;;;;;;23.57;15.57;;;;;;;4.64;73.64;101060.63;2080838;28;20239;-69
2021/12/29 03:01:15;;;;;;;23.35;15.38;;;;;;;4.67;73.04;101076.31;2081151;28;20194;-68
2021/12/29 03:02:15;;;;;;;23.10;14.98;;;;;;;3.87;72.87;100930.31;2081626;28;20175;-69
2021/12/29 03:03:21;;;;;;;22.00;14.57;;;;;;;3.99;72.82;100943.69;2081565;28;20682;-68
2021/12/29 03:04:22;;;;;;;22.55;14.85;;;;;;;4.54;73.13;101027.59;2082389;28;20622;-68
2021/12/29 03:05:25;;;;;;;21.63;14.63;;;;;;;4.78;72.71;101055.19;2082153;28;20623;-69
2021/12/29 03:06:26;;;;;;;22.50;14.45;;;;;;;4.59;72.43;101021.75;2082278;28;20175;-69
2021/12/29 03:07:26;;;;;;;22.40;14.65;;;;;;;3.89;72.78;100908.75;2082367;28;20182;-68
2021/12/29 03:08:27;;;;;;;22.93;14.83;;;;;;;4.86;72.43;101067.81;2082246;28;20183;-69
2021/12/29 03:09:27;;;;;;;23.20;14.73;;;;;;;4.83;72.23;101054.84;2082480;28;20175;-68
2021/12/29 03:10:28;;;;;;;24.03;15.73;;;;;;;4.83;72.79;101062.31;2080690;28;20189;-68
2021/12/29 03:11:28;;;;;;;20.80;14.90;;;;;;;4.82;72.54;101058.75;2082152;28;20191;-68
2021/12/29 03:12:29;;;;;;;22.90;14.87;;;;;;;4.82;72.78;101055.25;2082168;28;20619;-69
2021/12/29 03:13:32;;;;;;;22.07;14.30;;;;;;;4.74;72.40;101037.13;2082406;28;20663;-68
2021/12/29 03:14:33;;;;;;;22.60;14.98;;;;;;;4.79;72.18;101045.00;2082252;28;20206;-68
2021/12/29 03:15:34;;;;;;;24.63;15.20;;;;;;;4.89;72.07;101044.28;2082248;28;20304;-69
2021/12/29 03:16:36;;;;;;;23.48;15.02;;;;;;;4.90;72.60;101048.59;2082013;28;20219;-68
2021/12/29 03:17:36;;;;;;;21.90;14.55;;;;;;;4.89;72.39;101047.03;2081809;28;20238;-69
2021/12/29 03:18:37;;;;;;;24.90;14.57;;;;;;;3.97;72.24;100905.72;2081402;28;20186;-69
2021/12/29 03:19:37;;;;;;;21.73;14.13;;;;;;;4.86;72.13;101042.31;2082173;28;20182;-68
2021/12/29 03:20:38;;;;;;;23.80;14.33;;;;;;;4.85;72.38;101041.53;2080947;28;20653;-68
2021/12/29 03:21:39;;;;;;;22.73;14.57;;;;;;;4.83;72.62;101043.84;2082449;28;20241;-69
2021/12/29 03:22:39;;;;;;;23.83;14.50;;;;;;;4.52;72.29;100999.75;2081767;28;20213;-68
2021/12/29 03:23:40;;;;;;;24.30;14.63;;;;;;;4.80;72.13;101043.84;2082455;28;20192;-68
2021/12/29 03:24:41;;;;;;;25.30;15.23;;;;;;;4.79;72.29;101045.81;2081995;28;20186;-68
2021/12/29 03:25:42;;;;;;;22.25;14.30;;;;;;;4.78;72.64;101037.94;2082421;28;20269;-68
2021/12/29 03:26:43;;;;;;;23.63;15.02;;;;;;;4.78;72.76;101046.19;2081895;28;20211;-68
2021/12/29 03:27:43;;;;;;;23.47;14.63;;;;;;;4.73;72.93;101049.28;2082358;28;20176;-69
2021/12/29 03:28:44;;;;;;;25.70;14.77;;;;;;;4.65;72.71;101050.41;2081847;28;20600;-68
2021/12/29 03:29:44;;;;;;;25.97;15.40;;;;;;;4.58;72.90;101050.38;2081952;28;20196;-69
2021/12/29 03:30:49;;;;;;;24.40;14.97;;;;;;;4.62;72.77;101059.41;2080987;28;20186;-68
2021/12/29 03:31:50;;;;;;;25.67;15.10;;;;;;;4.44;72.67;101014.59;2082236;28;20184;-68
2021/12/29 03:32:53;;;;;;;22.58;14.65;;;;;;;4.62;72.83;101059.41;2081903;28;20184;-68
2021/12/29 03:33:54;;;;;;;27.85;15.90;;;;;;;4.60;72.55;101056.25;2082299;28;20573;-68
2021/12/29 03:34:54;;;;;;;22.80;14.67;;;;;;;4.62;72.80;101053.94;2081473;28;20226;-68
2021/12/29 03:36:02;;;;;;;24.50;14.87;;;;;;;4.00;72.50;100954.28;2082318;28;20934;-68
2021/12/29 03:37:02;;;;;;;23.92;15.02;;;;;;;4.56;73.07;101044.47;2081993;28;20171;-68
2021/12/29 03:38:06;;;;;;;27.43;15.67;;;;;;;4.56;73.19;101045.25;2082198;28;20188;-68
2021/12/29 03:39:07;;;;;;;23.02;14.70;;;;;;;4.58;72.94;101047.63;2082092;28;20224;-69
2021/12/29 03:40:08;;;;;;;26.47;16.17;;;;;;;4.62;73.56;101043.72;2081244;28;20649;-69
2021/12/29 03:41:11;;;;;;;24.15;15.75;;;;;;;4.60;73.18;101050.75;2081312;28;20237;-69
2021/12/29 03:42:11;;;;;;;23.48;14.70;;;;;;;4.60;73.09;101043.31;2081939;28;20183;-68
2021/12/29 03:43:12;;;;;;;25.03;15.53;;;;;;;4.46;73.48;101015.00;2082122;28;20939;-68
2021/12/29 03:44:13;;;;;;;22.13;14.87;;;;;;;4.59;72.97;101062.91;2081967;28;20178;-69
2021/12/29 03:45:13;;;;;;;25.07;14.57;;;;;;;4.57;73.20;101046.06;2081977;28;20515;-68
2021/12/29 03:46:15;;;;;;;25.60;15.60;;;;;;;4.33;73.17;101016.47;2082070;28;20180;-68
2021/12/29 03:47:15;;;;;;;24.95;15.90;;;;;;;4.50;73.34;101040.50;2081866;28;20193;-69
2021/12/29 03:48:16;;;;;;;25.70;15.20;;;;;;;4.53;73.03;101039.75;2081969;28;20660;-68
2021/12/29 03:49:17;;;;;;;26.90;15.90;;;;;;;4.59;73.71;101040.97;2081963;28;20185;-68
2021/12/29 03:50:17;;;;;;;22.77;15.13;;;;;;;4.59;73.00;101040.97;2080734;28;20193;-68
2021/12/29 03:51:18;;;;;;;24.87;15.73;;;;;;;4.63;73.41;101044.53;2081682;28;20259;-68
2021/12/29 03:52:18;;;;;;;24.33;15.80;;;;;;;4.68;73.16;101044.16;2081967;28;20197;-68
2021/12/29 03:53:19;;;;;;;25.53;16.23;;;;;;;4.70;72.89;101042.63;2081945;28;20266;-69
2021/12/29 03:54:19;;;;;;;25.03;14.40;;;;;;;4.67;73.13;101042.59;2081305;28;20274;-69
2021/12/29 03:55:20;;;;;;;23.50;14.70;;;;;;;4.64;73.17;101051.59;2081172;28;20241;-68
2021/12/29 03:56:20;;;;;;;24.93;15.50;;;;;;;4.23;72.66;100976.81;2082012;28;20280;-68
2021/12/29 03:57:20;;;;;;;24.37;15.13;;;;;;;4.68;72.95;101053.19;2081929;28;20182;-68
2021/12/29 03:58:23;;;;;;;23.87;15.50;;;;;;;4.67;72.73;101054.34;2081957;28;20217;-68
2021/12/29 03:59:24;;;;;;;23.05;14.80;;;;;;;4.64;72.84;101054.31;2080985;28;20187;-68
2021/12/29 04:00:25;;;;;;;22.30;14.60;;;;;;;4.49;73.38;101022.47;2079800;28;20179;-68
2021/12/29 04:01:25;;;;;;;25.17;13.53;;;;;;;4.35;72.66;100994.91;2081968;28;20203;-69
2021/12/29 04:02:26;;;;;;;21.57;13.30;;;;;;;4.58;73.18;101042.94;2081043;28;20187;-68
2021/12/29 04:03:26;;;;;;;27.77;14.67;;;;;;;3.68;72.78;100911.34;2081210;28;20590;-68
2021/12/29 04:04:27;;;;;;;26.40;15.00;;;;;;;4.55;72.94;101043.69;2081658;28;20619;-68
2021/12/29 04:05:28;;;;;;;21.63;13.97;;;;;;;4.58;72.75;101034.69;2081863;28;20807;-68
2021/12/29 04:06:28;;;;;;;24.30;14.17;;;;;;;4.53;72.76;101039.75;2081739;28;20260;-68
2021/12/29 04:07:31;;;;;;;24.73;14.53;;;;;;;4.03;73.40;100966.47;2081831;28;20273;-69
2021/12/29 04:08:31;;;;;;;22.70;14.98;;;;;;;4.55;73.36;101027.22;2081695;28;20206;-68
2021/12/29 04:09:32;;;;;;;20.47;13.50;;;;;;;4.57;73.82;101033.09;2081938;28;20181;-68
2021/12/29 04:10:33;;;;;;;21.07;13.37;;;;;;;4.64;73.00;101035.91;2080098;28;20194;-68
2021/12/29 04:11:33;;;;;;;23.23;13.35;;;;;;;4.66;73.19;101030.81;2081763;28;20191;-68
2021/12/29 04:12:34;;;;;;;23.33;13.77;;;;;;;3.54;73.14;100862.69;2080919;28;20266;-68
2021/12/29 04:13:36;;;;;;;22.03;13.07;;;;;;;4.62;73.13;101031.97;2081434;28;20189;-68
2021/12/29 04:14:36;;;;;;;21.25;13.60;;;;;;;4.44;73.05;101011.84;2081586;28;20419;-68
2021/12/29 04:15:38;;;;;;;22.73;14.23;;;;;;;4.49;73.28;101036.97;2081962;28;20293;-68
2021/12/29 04:16:41;;;;;;;20.70;12.98;;;;;;;4.47;73.52;101028.31;2081446;28;20186;-69
2021/12/29 04:17:43;;;;;;;21.27;13.30;;;;;;;4.46;73.66;101037.72;2081962;28;20571;-68
2021/12/29 04:19:13;;;;;;;21.63;13.63;;;;;;;4.53;73.71;101042.50;2081541;28;20239;-68
2021/12/29 04:21:40;;;;;;;21.75;13.40;;;;;;;4.23;73.73;101006.19;2082033;28;20170;-68
2021/12/29 04:22:40;;;;;;;24.77;14.13;;;;;;;4.41;73.34;101043.56;2081374;28;20223;-68
2021/12/29 04:23:41;;;;;;;24.67;14.63;;;;;;;4.30;73.68;101031.72;2081937;28;20652;-68
2021/12/29 04:24:41;;;;;;;26.37;14.67;;;;;;;4.35;73.65;101028.63;2081473;28;20175;-68
2021/12/29 04:25:46;;;;;;;24.67;14.97;;;;;;;4.42;73.80;101034.16;2081954;28;20661;-68
2021/12/29 04:26:46;;;;;;;27.00;14.60;;;;;;;4.45;73.91;101027.13;2080762;28;20187;-69
2021/12/29 04:27:47;;;;;;;22.33;14.47;;;;;;;4.15;73.87;100979.91;2081373;28;20185;-68
2021/12/29 04:28:47;;;;;;;24.70;14.47;;;;;;;4.54;73.69;101042.13;2081582;28;20696;-68
2021/12/29 04:29:48;;;;;;;23.03;14.23;;;;;;;4.30;73.78;101015.28;2081423;28;20194;-68
2021/12/29 04:30:55;;;;;;;25.10;14.60;;;;;;;4.54;73.61;101044.06;2080379;28;20192;-68
2021/12/29 04:31:56;;;;;;;23.40;13.75;;;;;;;3.84;73.75;100920.88;2081033;28;20257;-69
2021/12/29 04:32:56;;;;;;;22.27;14.23;;;;;;;4.58;73.27;101072.31;2080925;28;20176;-68
2021/12/29 04:33:57;;;;;;;23.67;13.80;;;;;;;4.35;73.58;101025.91;2081823;28;20179;-68
2021/12/29 04:34:57;;;;;;;24.60;14.23;;;;;;;4.36;73.70;101048.63;2081178;28;20222;-68
2021/12/29 04:35:58;;;;;;;24.87;14.50;;;;;;;4.41;73.88;101042.81;2081936;28;20179;-68
2021/12/29 04:36:58;;;;;;;25.63;14.90;;;;;;;4.43;73.69;101046.75;2081456;28;20228;-69
2021/12/29 04:37:59;;;;;;;24.97;15.17;;;;;;;4.44;73.86;101053.81;2081848;28;20186;-68
2021/12/29 04:39:02;;;;;;;25.63;14.83;;;;;;;4.46;73.77;101048.72;2081326;28;20185;-68
2021/12/29 04:40:04;;;;;;;25.67;15.68;;;;;;;4.47;73.76;101038.53;2080936;28;20262;-68
2021/12/29 04:41:04;;;;;;;22.60;13.50;;;;;;;4.53;73.98;101034.25;2081012;28;20240;-68
2021/12/29 04:42:05;;;;;;;23.27;13.63;;;;;;;4.54;74.25;101030.34;2081578;28;20231;-68
2021/12/29 04:43:06;;;;;;;21.27;12.77;;;;;;;4.56;73.58;101028.78;2081487;28;20643;-68
2021/12/29 04:44:06;;;;;;;21.40;12.93;;;;;;;3.86;73.19;100909.53;2081799;28;20208;-68
2021/12/29 04:45:08;;;;;;;21.37;13.43;;;;;;;4.55;73.90;101027.22;2081560;28;20214;-68